Time;durP1;ratioP1;P1;durP2;ratioP2;P2;SDS_P1;SDS_P2;PMS_P1;PMS_P2;Temp;Humidity;BMP_temperature;BMP_pressure;BME280_temperature;BME280_humidity;BME280_pressure;Samples;Min_cycle;Max_cycle;Signal;HPM_P1;HPM_P2
2020/12/28 00:00:14;;;;;;;36.37;28.93;;;;;21.50;96634.00;;;;2063035;28;20686;-62
2020/12/28 00:01:14;;;;;;;32.60;28.27;;;;;21.50;96638.00;;;;2074623;28;20584;-62
2020/12/28 00:02:15;;;;;;;34.93;28.00;;;;;21.50;96637.00;;;;2076237;28;20222;-61
2020/12/28 00:03:15;;;;;;;30.50;26.47;;;;;21.50;96636.00;;;;2074948;28;20220;-62
2020/12/28 00:04:15;;;;;;;34.03;27.40;;;;;21.50;96626.00;;;;2077756;28;20256;-61
2020/12/28 00:05:15;;;;;;;30.90;27.30;;;;;21.40;96628.00;;;;2075465;28;20712;-61
2020/12/28 00:06:16;;;;;;;30.00;25.87;;;;;21.40;96635.00;;;;2063065;28;21001;-61
2020/12/28 00:07:17;;;;;;;31.20;26.40;;;;;21.50;96637.00;;;;2074770;28;20461;-62
2020/12/28 00:08:17;;;;;;;29.60;25.93;;;;;21.40;96632.00;;;;2061930;28;20327;-62
2020/12/28 00:09:17;;;;;;;30.00;24.73;;;;;21.40;96631.00;;;;2062976;28;20269;-62
2020/12/28 00:10:18;;;;;;;27.90;24.90;;;;;21.40;96632.00;;;;2075811;28;20222;-61
2020/12/28 00:11:18;;;;;;;28.80;24.50;;;;;21.40;96633.00;;;;2070228;28;20233;-61
2020/12/28 00:12:19;;;;;;;27.33;24.43;;;;;21.40;96629.00;;;;2075646;28;20238;-61
2020/12/28 00:13:19;;;;;;;31.10;24.40;;;;;21.40;96628.00;;;;2076112;28;20222;-61
2020/12/28 00:14:20;;;;;;;28.57;23.87;;;;;21.40;96630.00;;;;2075725;28;20231;-62
2020/12/28 00:15:22;;;;;;;27.10;21.80;;;;;21.40;96623.00;;;;2076074;28;20229;-62
2020/12/28 00:16:22;;;;;;;25.20;20.92;;;;;21.40;96615.00;;;;2067620;28;20234;-61
2020/12/28 00:17:23;;;;;;;24.30;21.70;;;;;21.40;96611.00;;;;2076534;28;20229;-62
2020/12/28 00:18:23;;;;;;;27.20;21.63;;;;;21.40;96607.00;;;;2075343;28;20239;-62
2020/12/28 00:19:23;;;;;;;25.63;21.53;;;;;21.40;96609.00;;;;2076623;28;20208;-61
2020/12/28 00:20:25;;;;;;;25.53;20.47;;;;;21.40;96617.00;;;;2075155;28;20220;-62
2020/12/28 00:21:25;;;;;;;22.08;19.75;;;;;21.40;96612.00;;;;2071828;28;20307;-61
2020/12/28 00:22:26;;;;;;;24.80;21.33;;;;;21.40;96610.00;;;;2074924;28;20225;-61
2020/12/28 00:23:26;;;;;;;22.43;19.37;;;;;21.40;96614.00;;;;2076880;28;20231;-61
2020/12/28 00:24:26;;;;;;;23.87;19.17;;;;;21.30;96612.00;;;;2074869;28;20217;-61
2020/12/28 00:25:27;;;;;;;22.33;18.97;;;;;21.40;96617.00;;;;2076810;28;20241;-61
2020/12/28 00:26:27;;;;;;;22.53;18.70;;;;;21.30;96620.00;;;;2065973;28;20237;-62
2020/12/28 00:27:28;;;;;;;19.57;17.47;;;;;21.30;96619.00;;;;2068374;28;20210;-62
2020/12/28 00:28:28;;;;;;;21.90;18.20;;;;;21.30;96620.00;;;;2074572;28;20214;-61
2020/12/28 00:29:28;;;;;;;21.53;18.00;;;;;21.30;96621.00;;;;2071904;28;20233;-62
2020/12/28 00:30:29;;;;;;;19.30;16.90;;;;;21.30;96621.00;;;;2077344;28;20210;-61
2020/12/28 00:31:29;;;;;;;18.27;15.97;;;;;21.30;96626.00;;;;2065734;28;20274;-61
2020/12/28 00:32:29;;;;;;;20.53;16.43;;;;;21.30;96618.00;;;;2068415;28;20219;-61
2020/12/28 00:33:30;;;;;;;16.50;14.80;;;;;21.30;96619.00;;;;2065098;28;20313;-62
2020/12/28 00:34:30;;;;;;;17.57;15.57;;;;;21.30;96622.00;;;;2068277;28;20279;-62
2020/12/28 00:35:30;;;;;;;17.40;15.60;;;;;21.30;96613.00;;;;2079022;28;20210;-62
2020/12/28 00:36:30;;;;;;;16.97;15.17;;;;;21.30;96606.00;;;;2079879;28;20217;-62
2020/12/28 00:37:31;;;;;;;17.97;16.00;;;;;21.30;96621.00;;;;2079865;28;20213;-61
2020/12/28 00:38:31;;;;;;;16.80;14.13;;;;;21.30;96620.00;;;;2074118;28;20209;-61
2020/12/28 00:39:32;;;;;;;18.93;15.87;;;;;21.30;96620.00;;;;2077581;28;20213;-62
2020/12/28 00:40:32;;;;;;;16.20;13.77;;;;;21.30;96621.00;;;;2073967;28;20756;-62
2020/12/28 00:41:32;;;;;;;16.10;14.33;;;;;21.30;96624.00;;;;2077681;28;20609;-61
2020/12/28 00:42:33;;;;;;;15.00;13.30;;;;;21.20;96621.00;;;;2065061;28;20690;-61
2020/12/28 00:43:33;;;;;;;14.60;13.00;;;;;21.20;96613.00;;;;2068993;28;20329;-62
2020/12/28 00:44:34;;;;;;;14.03;12.53;;;;;21.30;96605.00;;;;2073539;28;20248;-62
2020/12/28 00:45:35;;;;;;;15.37;13.30;;;;;21.20;96619.00;;;;2077247;28;20271;-62
2020/12/28 00:46:36;;;;;;;14.18;12.68;;;;;21.30;96613.00;;;;2074527;28;20260;-61
2020/12/28 00:47:36;;;;;;;14.77;12.43;;;;;21.20;96607.00;;;;2079771;28;20217;-61
2020/12/28 00:48:37;;;;;;;14.47;12.93;;;;;21.20;96609.00;;;;2079865;28;20807;-62
2020/12/28 00:49:37;;;;;;;14.33;12.20;;;;;21.20;96609.00;;;;2079959;28;20970;-62
2020/12/28 00:50:37;;;;;;;15.57;12.93;;;;;21.20;96613.00;;;;2064403;28;20709;-62
2020/12/28 00:51:38;;;;;;;15.03;12.23;;;;;21.20;96612.00;;;;2069635;28;20304;-61
2020/12/28 00:52:38;;;;;;;13.43;11.43;;;;;21.20;96613.00;;;;2072980;28;20346;-61
2020/12/28 00:53:38;;;;;;;12.37;11.03;;;;;21.20;96614.00;;;;2078368;28;20216;-61
2020/12/28 00:54:39;;;;;;;12.90;11.50;;;;;21.20;96604.00;;;;2072744;28;20276;-61
2020/12/28 00:55:39;;;;;;;12.73;11.30;;;;;21.20;96602.00;;;;2069629;28;20221;-62
2020/12/28 00:56:39;;;;;;;13.13;11.67;;;;;21.20;96608.00;;;;2064131;28;20218;-61
2020/12/28 00:57:40;;;;;;;12.33;11.03;;;;;21.20;96601.00;;;;2078495;28;20220;-62
2020/12/28 00:58:40;;;;;;;12.23;10.70;;;;;21.20;96591.00;;;;2072796;28;20372;-62
2020/12/28 00:59:41;;;;;;;12.03;10.03;;;;;21.20;96605.00;;;;2069831;28;20222;-62
2020/12/28 01:00:41;;;;;;;11.57;9.83;;;;;21.20;96599.00;;;;2071089;28;20223;-61
2020/12/28 01:01:41;;;;;;;11.27;9.77;;;;;21.10;96602.00;;;;2078824;28;20296;-62
2020/12/28 01:02:41;;;;;;;12.77;10.13;;;;;21.20;96600.00;;;;2079698;28;20267;-62
2020/12/28 01:03:42;;;;;;;10.63;9.53;;;;;21.20;96602.00;;;;2072446;28;20230;-61
2020/12/28 01:04:42;;;;;;;11.60;9.60;;;;;21.20;96609.00;;;;2078172;28;20600;-62
2020/12/28 01:05:43;;;;;;;10.57;9.47;;;;;21.20;96601.00;;;;2070785;28;20238;-62
2020/12/28 01:06:43;;;;;;;11.30;9.93;;;;;21.10;96595.00;;;;2070884;28;20357;-62
2020/12/28 01:07:43;;;;;;;10.13;9.13;;;;;21.10;96604.00;;;;2079649;28;20215;-62
2020/12/28 01:08:44;;;;;;;9.90;8.73;;;;;21.10;96601.00;;;;2072209;28;20212;-62
2020/12/28 01:09:44;;;;;;;11.13;9.10;;;;;21.10;96599.00;;;;2079174;28;20251;-62
2020/12/28 01:10:44;;;;;;;10.20;8.57;;;;;21.10;96597.00;;;;2072169;28;20218;-61
2020/12/28 01:11:45;;;;;;;10.03;8.50;;;;;21.10;96605.00;;;;2078229;28;20688;-61
2020/12/28 01:12:45;;;;;;;9.23;7.90;;;;;21.10;96589.00;;;;2072028;28;20287;-61
2020/12/28 01:13:45;;;;;;;8.80;7.90;;;;;21.10;96599.00;;;;2079203;28;20213;-62
2020/12/28 01:14:46;;;;;;;9.20;8.27;;;;;21.10;96590.00;;;;2071853;28;20214;-62
2020/12/28 01:15:46;;;;;;;8.63;7.83;;;;;21.10;96597.00;;;;2079284;28;20221;-61
2020/12/28 01:16:46;;;;;;;10.07;8.00;;;;;21.10;96601.00;;;;2079882;28;20247;-61
2020/12/28 01:17:47;;;;;;;8.20;7.40;;;;;21.10;96594.00;;;;2070991;28;20712;-63
2020/12/28 01:18:47;;;;;;;9.67;7.63;;;;;21.10;96598.00;;;;2079490;28;20587;-62
2020/12/28 01:19:47;;;;;;;7.57;6.77;;;;;21.10;96593.00;;;;2071519;28;20633;-62
2020/12/28 01:20:48;;;;;;;8.63;7.60;;;;;21.10;96593.00;;;;2079605;28;20220;-62
2020/12/28 01:21:48;;;;;;;8.10;6.83;;;;;21.00;96594.00;;;;2071551;28;20640;-62
2020/12/28 01:22:48;;;;;;;8.37;7.57;;;;;21.00;96599.00;;;;2079693;28;20213;-62
2020/12/28 01:23:49;;;;;;;7.33;6.47;;;;;21.00;96591.00;;;;2071606;28;20221;-62
2020/12/28 01:24:49;;;;;;;8.40;7.60;;;;;21.00;96595.00;;;;2079460;28;20210;-61
2020/12/28 01:25:49;;;;;;;8.43;7.40;;;;;21.00;96595.00;;;;2071515;28;20248;-62
2020/12/28 01:26:50;;;;;;;8.40;7.10;;;;;21.00;96593.00;;;;2079506;28;20231;-61
2020/12/28 01:27:50;;;;;;;7.27;6.53;;;;;21.00;96601.00;;;;2071729;28;20213;-62
2020/12/28 01:28:50;;;;;;;7.73;6.63;;;;;21.00;96596.00;;;;2079079;28;20217;-61
2020/12/28 01:29:51;;;;;;;9.13;7.03;;;;;21.00;96607.00;;;;2071870;28;20211;-61
2020/12/28 01:30:51;;;;;;;7.07;6.37;;;;;21.00;96609.00;;;;2079367;28;20578;-61
2020/12/28 01:31:51;;;;;;;8.57;6.77;;;;;21.00;96610.00;;;;2071892;28;20223;-61
2020/12/28 01:32:52;;;;;;;7.00;6.30;;;;;21.00;96609.00;;;;2079346;28;20232;-61
2020/12/28 01:33:52;;;;;;;6.97;6.07;;;;;21.00;96615.00;;;;2071952;28;20309;-61
2020/12/28 01:34:52;;;;;;;6.87;6.27;;;;;21.00;96618.00;;;;2079403;28;20205;-62
2020/12/28 01:35:53;;;;;;;6.70;5.57;;;;;21.00;96605.00;;;;2079463;28;20343;-62
2020/12/28 01:36:53;;;;;;;6.47;5.37;;;;;21.00;96610.00;;;;2078923;28;20235;-62
2020/12/28 01:37:54;;;;;;;6.63;5.93;;;;;21.00;96610.00;;;;2072227;28;20213;-62
2020/12/28 01:38:54;;;;;;;6.20;5.57;;;;;21.00;96618.00;;;;2079771;28;20220;-61
2020/12/28 01:39:54;;;;;;;5.60;5.00;;;;;21.00;96621.00;;;;2079654;28;20294;-62
2020/12/28 01:40:56;;;;;;;6.13;5.53;;;;;21.00;96620.00;;;;2078779;28;20241;-62
2020/12/28 01:41:56;;;;;;;5.70;4.93;;;;;21.00;96611.00;;;;2072438;28;20218;-61
2020/12/28 01:42:57;;;;;;;6.03;5.27;;;;;21.00;96617.00;;;;2078436;28;20776;-61
2020/12/28 01:43:57;;;;;;;5.50;5.00;;;;;21.00;96621.00;;;;2072451;28;20624;-62
2020/12/28 01:44:57;;;;;;;6.70;5.20;;;;;21.00;96613.00;;;;2078535;28;20693;-61
2020/12/28 01:46:01;;;;;;;5.10;4.53;;;;;20.90;96608.00;;;;2065499;28;20751;-62
2020/12/28 01:47:01;;;;;;;6.07;4.90;;;;;21.00;96616.00;;;;2071157;28;20807;-61
2020/12/28 01:48:01;;;;;;;5.13;4.63;;;;;21.00;96618.00;;;;2062067;28;20253;-61
2020/12/28 01:49:02;;;;;;;4.90;4.40;;;;;20.90;96616.00;;;;2064351;28;20210;-61
2020/12/28 01:50:02;;;;;;;4.93;4.43;;;;;20.90;96615.00;;;;2080551;28;20607;-62
2020/12/28 01:51:02;;;;;;;4.90;4.37;;;;;20.90;96618.00;;;;2062546;28;20312;-61
2020/12/28 01:52:03;;;;;;;4.87;4.37;;;;;20.90;96618.00;;;;2058268;28;20289;-62
2020/12/28 01:53:03;;;;;;;4.57;4.17;;;;;20.90;96618.00;;;;2079175;28;20222;-61
2020/12/28 01:54:04;;;;;;;4.27;3.87;;;;;20.90;96614.00;;;;2058261;28;20229;-62
2020/12/28 01:55:04;;;;;;;4.70;3.70;;;;;20.90;96618.00;;;;2062126;28;20214;-61
2020/12/28 01:56:05;;;;;;;5.43;4.13;;;;;20.90;96621.00;;;;2066130;28;20210;-61
2020/12/28 01:57:06;;;;;;;4.68;3.95;;;;;20.90;96621.00;;;;2072357;28;20743;-61
2020/12/28 01:58:06;;;;;;;4.30;3.83;;;;;20.90;96616.00;;;;2080954;28;20216;-61
2020/12/28 01:59:07;;;;;;;4.57;4.13;;;;;20.90;96626.00;;;;2063903;28;20217;-61
2020/12/28 02:00:07;;;;;;;4.30;3.90;;;;;20.80;96620.00;;;;2056330;28;20222;-61
2020/12/28 02:01:09;;;;;;;4.20;3.80;;;;;20.90;96629.00;;;;2072373;28;20728;-62
2020/12/28 02:02:09;;;;;;;4.15;3.75;;;;;20.90;96621.00;;;;2081195;28;20283;-62
2020/12/28 02:03:09;;;;;;;4.83;3.77;;;;;20.80;96622.00;;;;2078033;28;20328;-62
2020/12/28 02:04:10;;;;;;;4.03;3.67;;;;;20.80;96629.00;;;;2075889;28;20255;-61
2020/12/28 02:05:10;;;;;;;4.30;3.40;;;;;20.80;96623.00;;;;2060807;28;20227;-61
2020/12/28 02:06:11;;;;;;;3.60;3.30;;;;;20.80;96624.00;;;;2058763;28;20236;-62
2020/12/28 02:07:11;;;;;;;3.03;2.77;;;;;20.80;96622.00;;;;2067880;28;20243;-61
2020/12/28 02:08:11;;;;;;;3.60;3.10;;;;;20.90;96622.00;;;;2056141;28;20281;-61
2020/12/28 02:09:12;;;;;;;3.80;3.30;;;;;20.90;96620.00;;;;2062834;28;20301;-61
2020/12/28 02:10:13;;;;;;;3.40;3.10;;;;;20.80;96626.00;;;;2076312;28;20242;-61
2020/12/28 02:11:13;;;;;;;3.60;3.30;;;;;20.80;96634.00;;;;2081131;28;20457;-61
2020/12/28 02:12:13;;;;;;;3.70;3.30;;;;;20.80;96636.00;;;;2077566;28;20723;-61
2020/12/28 02:13:14;;;;;;;3.63;2.97;;;;;20.80;96634.00;;;;2076345;28;20578;-61
2020/12/28 02:14:14;;;;;;;3.50;3.07;;;;;20.80;96636.00;;;;2077576;28;20222;-61
2020/12/28 02:15:15;;;;;;;3.50;2.77;;;;;20.80;96631.00;;;;2076270;28;20216;-61
2020/12/28 02:16:15;;;;;;;3.13;2.83;;;;;20.80;96640.00;;;;2080906;28;20224;-61
2020/12/28 02:17:15;;;;;;;2.70;2.50;;;;;20.80;96628.00;;;;2077331;28;20240;-61
2020/12/28 02:18:17;;;;;;;3.13;2.83;;;;;20.80;96634.00;;;;2067806;28;20311;-61
2020/12/28 02:19:17;;;;;;;3.25;2.95;;;;;20.80;96622.00;;;;2068435;28;20229;-61
2020/12/28 02:20:18;;;;;;;3.30;3.00;;;;;20.80;96624.00;;;;2068141;28;20243;-61
2020/12/28 02:21:18;;;;;;;2.53;2.33;;;;;20.80;96626.00;;;;2076767;28;20220;-61
2020/12/28 02:22:18;;;;;;;2.93;2.67;;;;;20.80;96621.00;;;;2076763;28;20328;-62
2020/12/28 02:23:19;;;;;;;3.33;2.43;;;;;20.80;96630.00;;;;2077013;28;20225;-62
2020/12/28 02:24:19;;;;;;;2.90;2.60;;;;;20.80;96631.00;;;;2076919;28;20210;-62
2020/12/28 02:25:20;;;;;;;3.00;2.70;;;;;20.80;96625.00;;;;2079541;28;20708;-61
2020/12/28 02:26:20;;;;;;;3.03;2.53;;;;;20.80;96631.00;;;;2080034;28;20223;-61
2020/12/28 02:27:20;;;;;;;3.50;2.60;;;;;20.80;96634.00;;;;2080828;28;20250;-61
2020/12/28 02:28:20;;;;;;;2.93;2.40;;;;;20.80;96637.00;;;;2080318;28;20267;-62
2020/12/28 02:29:21;;;;;;;3.37;2.50;;;;;20.70;96631.00;;;;2076441;28;20219;-62
2020/12/28 02:30:21;;;;;;;2.70;2.47;;;;;20.70;96622.00;;;;2067771;28;20213;-62
2020/12/28 02:31:21;;;;;;;2.73;2.30;;;;;20.80;96630.00;;;;2068545;28;20224;-61
2020/12/28 02:32:22;;;;;;;2.67;2.47;;;;;20.70;96627.00;;;;2077171;28;20215;-61
2020/12/28 02:33:22;;;;;;;2.30;2.10;;;;;20.70;96628.00;;;;2072283;28;20212;-61
2020/12/28 02:34:22;;;;;;;2.30;2.10;;;;;20.70;96626.00;;;;2072118;28;20223;-61
2020/12/28 02:35:23;;;;;;;2.60;2.40;;;;;20.70;96629.00;;;;2080728;28;20212;-61
2020/12/28 02:36:23;;;;;;;2.23;1.97;;;;;20.70;96626.00;;;;2076071;28;20220;-61
2020/12/28 02:37:23;;;;;;;2.50;2.03;;;;;20.70;96621.00;;;;2068592;28;20220;-61
2020/12/28 02:38:24;;;;;;;1.80;1.70;;;;;20.70;96627.00;;;;2067290;28;20337;-61
2020/12/28 02:39:24;;;;;;;3.23;2.50;;;;;20.70;96623.00;;;;2077468;28;20246;-62
2020/12/28 02:40:24;;;;;;;2.17;1.97;;;;;20.70;96626.00;;;;2080479;28;20317;-62
2020/12/28 02:41:25;;;;;;;2.97;2.47;;;;;20.70;96632.00;;;;2075777;28;20214;-63
2020/12/28 02:42:25;;;;;;;2.30;2.10;;;;;20.70;96626.00;;;;2075418;28;20218;-61
2020/12/28 02:43:26;;;;;;;2.23;2.03;;;;;20.70;96634.00;;;;2080697;28;20219;-61
2020/12/28 02:44:26;;;;;;;2.80;2.30;;;;;20.70;96637.00;;;;2080770;28;20266;-60
2020/12/28 02:45:26;;;;;;;2.23;2.03;;;;;20.70;96631.00;;;;2080786;28;20256;-61
2020/12/28 02:46:27;;;;;;;2.10;1.90;;;;;20.60;96633.00;;;;2075356;28;20214;-61
2020/12/28 02:47:27;;;;;;;2.00;1.70;;;;;20.70;96626.00;;;;2077762;28;20231;-61
2020/12/28 02:48:27;;;;;;;1.97;1.80;;;;;20.70;96622.00;;;;2075419;28;20331;-61
2020/12/28 02:49:28;;;;;;;2.17;1.80;;;;;20.70;96628.00;;;;2077885;28;20208;-62
2020/12/28 02:50:28;;;;;;;2.27;1.70;;;;;20.70;96623.00;;;;2075325;28;20212;-62
2020/12/28 02:51:28;;;;;;;1.70;1.53;;;;;20.60;96630.00;;;;2078042;28;20208;-61
2020/12/28 02:52:28;;;;;;;1.77;1.60;;;;;20.60;96624.00;;;;2075247;28;20212;-61
2020/12/28 02:53:29;;;;;;;2.10;1.90;;;;;20.70;96631.00;;;;2076626;28;20273;-61
2020/12/28 02:54:29;;;;;;;2.27;1.80;;;;;20.70;96624.00;;;;2075069;28;20229;-61
2020/12/28 02:55:29;;;;;;;3.20;1.80;;;;;20.60;96630.00;;;;2069391;28;20236;-62
2020/12/28 02:56:30;;;;;;;2.20;1.87;;;;;20.60;96623.00;;;;2065975;28;20727;-61
2020/12/28 02:57:30;;;;;;;1.90;1.80;;;;;20.60;96638.00;;;;2077058;28;20627;-61
2020/12/28 02:58:31;;;;;;;1.90;1.70;;;;;20.60;96626.00;;;;2080633;28;20258;-61
2020/12/28 02:59:31;;;;;;;1.63;1.40;;;;;20.60;96624.00;;;;2080699;28;20232;-62
2020/12/28 03:00:31;;;;;;;1.57;1.40;;;;;20.60;96641.00;;;;2080763;28;20208;-62
2020/12/28 03:01:35;;;;;;;1.47;1.37;;;;;20.60;96635.00;;;;2074713;28;20264;-62
2020/12/28 03:02:35;;;;;;;1.60;1.40;;;;;20.60;96628.00;;;;2078760;28;20402;-62
2020/12/28 03:03:35;;;;;;;1.30;1.20;;;;;20.60;96634.00;;;;2074206;28;20227;-62
2020/12/28 03:04:36;;;;;;;1.90;1.50;;;;;20.60;96631.00;;;;2078155;28;20220;-62
2020/12/28 03:05:36;;;;;;;1.90;1.70;;;;;20.40;96642.00;;;;2076188;28;20239;-61
2020/12/28 03:06:36;;;;;;;1.43;1.33;;;;;20.60;96639.00;;;;2080313;28;20220;-61
2020/12/28 03:07:36;;;;;;;2.37;1.40;;;;;20.60;96639.00;;;;2080039;28;20220;-61
2020/12/28 03:08:37;;;;;;;1.27;1.17;;;;;20.60;96642.00;;;;2080236;28;20247;-61
2020/12/28 03:09:37;;;;;;;2.17;1.33;;;;;20.60;96649.00;;;;2073549;28;20205;-61
2020/12/28 03:10:37;;;;;;;1.83;1.50;;;;;20.60;96639.00;;;;2078385;28;20228;-61
2020/12/28 03:11:38;;;;;;;1.33;1.23;;;;;20.50;96641.00;;;;2073214;28;20220;-61
2020/12/28 03:12:38;;;;;;;1.83;1.57;;;;;20.60;96641.00;;;;2078229;28;20239;-61
2020/12/28 03:13:38;;;;;;;2.23;1.63;;;;;20.60;96641.00;;;;2073367;28;20212;-61
2020/12/28 03:14:39;;;;;;;1.17;0.93;;;;;20.50;96637.00;;;;2078730;28;20212;-62
2020/12/28 03:15:39;;;;;;;1.63;1.47;;;;;20.60;96641.00;;;;2073350;28;20272;-62
2020/12/28 03:16:39;;;;;;;1.30;1.20;;;;;20.50;96639.00;;;;2078764;28;20767;-62
2020/12/28 03:17:40;;;;;;;1.40;1.30;;;;;20.50;96634.00;;;;2073196;28;20729;-61
2020/12/28 03:18:40;;;;;;;1.33;1.23;;;;;20.60;96633.00;;;;2077782;28;20227;-61
2020/12/28 03:19:40;;;;;;;1.20;1.10;;;;;20.60;96633.00;;;;2072764;28;20251;-61
2020/12/28 03:20:41;;;;;;;1.60;1.40;;;;;20.50;96621.00;;;;2079010;28;20239;-61
2020/12/28 03:21:41;;;;;;;1.50;1.37;;;;;20.50;96631.00;;;;2072569;28;20220;-61
2020/12/28 03:22:41;;;;;;;1.43;1.33;;;;;20.50;96621.00;;;;2078850;28;20217;-61
2020/12/28 03:23:42;;;;;;;1.20;1.10;;;;;20.50;96621.00;;;;2071188;28;20680;-62
2020/12/28 03:24:42;;;;;;;1.80;1.20;;;;;20.50;96623.00;;;;2078792;28;20733;-61
2020/12/28 03:25:42;;;;;;;1.43;1.20;;;;;20.50;96618.00;;;;2072681;28;20711;-61
2020/12/28 03:26:43;;;;;;;1.20;1.10;;;;;20.50;96617.00;;;;2079198;28;20216;-61
2020/12/28 03:27:43;;;;;;;1.60;1.23;;;;;20.50;96620.00;;;;2072703;28;20216;-62
2020/12/28 03:28:43;;;;;;;1.40;1.20;;;;;20.50;96616.00;;;;2079273;28;20211;-61
2020/12/28 03:29:44;;;;;;;1.20;1.10;;;;;20.50;96611.00;;;;2072656;28;20700;-61
2020/12/28 03:30:44;;;;;;;1.20;0.97;;;;;20.50;96608.00;;;;2070488;28;20209;-62
2020/12/28 03:31:44;;;;;;;2.90;1.00;;;;;20.50;96615.00;;;;2063615;28;20217;-61
2020/12/28 03:32:45;;;;;;;1.67;1.30;;;;;20.50;96614.00;;;;2070185;28;20244;-62
2020/12/28 03:33:45;;;;;;;1.30;1.20;;;;;20.50;96610.00;;;;2069622;28;20224;-61
2020/12/28 03:34:45;;;;;;;1.13;1.03;;;;;20.50;96618.00;;;;2070778;28;20224;-61
2020/12/28 03:35:46;;;;;;;1.20;1.10;;;;;20.50;96604.00;;;;2071222;28;20238;-61
2020/12/28 03:36:46;;;;;;;1.10;1.00;;;;;20.50;96620.00;;;;2068232;28;20271;-61
2020/12/28 03:37:47;;;;;;;1.00;0.80;;;;;20.50;96604.00;;;;2079934;28;20197;-61
2020/12/28 03:38:47;;;;;;;1.27;0.93;;;;;20.40;96606.00;;;;2080519;28;20204;-61
2020/12/28 03:39:47;;;;;;;1.20;1.00;;;;;20.50;96622.00;;;;2072378;28;20553;-61
2020/12/28 03:40:48;;;;;;;0.93;0.80;;;;;20.50;96623.00;;;;2080111;28;20263;-61
2020/12/28 03:41:48;;;;;;;1.00;0.73;;;;;20.50;96620.00;;;;2072297;28;20211;-62
2020/12/28 03:42:48;;;;;;;1.20;0.90;;;;;20.50;96623.00;;;;2080256;28;20254;-61
2020/12/28 03:43:48;;;;;;;1.33;1.00;;;;;20.50;96625.00;;;;2063624;28;20217;-61
2020/12/28 03:44:49;;;;;;;1.00;0.90;;;;;20.50;96626.00;;;;2063467;28;20205;-62
2020/12/28 03:45:49;;;;;;;1.10;1.00;;;;;20.50;96634.00;;;;2072267;28;20781;-62
2020/12/28 03:46:50;;;;;;;0.87;0.70;;;;;20.50;96633.00;;;;2080172;28;20228;-62
2020/12/28 03:47:50;;;;;;;0.80;0.80;;;;;20.40;96635.00;;;;2063424;28;20234;-62
2020/12/28 03:48:50;;;;;;;0.87;0.87;;;;;20.40;96642.00;;;;2071324;28;20296;-61
2020/12/28 03:49:51;;;;;;;1.10;0.83;;;;;20.40;96643.00;;;;2063781;28;20210;-61
2020/12/28 03:50:51;;;;;;;0.90;0.70;;;;;20.40;96644.00;;;;2071407;28;20215;-62
2020/12/28 03:51:51;;;;;;;2.00;1.00;;;;;20.40;96645.00;;;;2063743;28;20217;-61
2020/12/28 03:52:52;;;;;;;1.20;0.87;;;;;20.40;96648.00;;;;2079880;28;20211;-61
2020/12/28 03:53:52;;;;;;;0.80;0.70;;;;;20.40;96646.00;;;;2072562;28;20228;-62
2020/12/28 03:54:52;;;;;;;0.80;0.70;;;;;20.40;96650.00;;;;2079540;28;20254;-62
2020/12/28 03:55:53;;;;;;;2.47;0.90;;;;;20.40;96642.00;;;;2072663;28;20679;-61
2020/12/28 03:56:53;;;;;;;0.93;0.83;;;;;20.40;96638.00;;;;2076401;28;20224;-62
2020/12/28 03:57:53;;;;;;;0.70;0.70;;;;;20.40;96648.00;;;;2072650;28;20217;-62
2020/12/28 03:58:54;;;;;;;0.70;0.60;;;;;20.40;96643.00;;;;2078523;28;20219;-61
2020/12/28 03:59:54;;;;;;;0.93;0.60;;;;;20.40;96643.00;;;;2072745;28;20237;-62
2020/12/28 04:00:54;;;;;;;1.30;0.83;;;;;20.40;96649.00;;;;2079422;28;20213;-62
2020/12/28 04:01:55;;;;;;;1.00;0.90;;;;;20.40;96651.00;;;;2071611;28;20220;-61
2020/12/28 04:02:55;;;;;;;0.77;0.63;;;;;20.40;96656.00;;;;2079299;28;20219;-62
2020/12/28 04:03:55;;;;;;;0.80;0.70;;;;;20.20;96665.00;;;;2064421;28;20942;-62
2020/12/28 04:04:56;;;;;;;0.90;0.60;;;;;20.40;96656.00;;;;2069794;28;20695;-62
2020/12/28 04:05:56;;;;;;;0.90;0.60;;;;;20.40;96663.00;;;;2076671;28;20582;-61
2020/12/28 04:06:57;;;;;;;1.77;0.90;;;;;20.40;96664.00;;;;2079995;28;20446;-61
2020/12/28 04:07:57;;;;;;;1.10;0.77;;;;;20.40;96661.00;;;;2079786;28;20209;-61
2020/12/28 04:08:57;;;;;;;1.07;0.80;;;;;20.40;96663.00;;;;2069429;28;20212;-61
2020/12/28 04:09:58;;;;;;;0.70;0.60;;;;;20.40;96664.00;;;;2064439;28;20267;-61
2020/12/28 04:10:58;;;;;;;1.00;0.67;;;;;20.40;96658.00;;;;2078906;28;20221;-62
2020/12/28 04:11:58;;;;;;;0.80;0.57;;;;;20.40;96660.00;;;;2073223;28;21026;-61
2020/12/28 04:12:59;;;;;;;1.00;0.50;;;;;20.40;96667.00;;;;2078778;28;20251;-61
2020/12/28 04:13:59;;;;;;;0.90;0.60;;;;;20.40;96667.00;;;;2073394;28;20294;-61
2020/12/28 04:15:00;;;;;;;0.80;0.60;;;;;20.40;96665.00;;;;2078486;28;20213;-62
2020/12/28 04:16:00;;;;;;;0.83;0.60;;;;;20.40;96660.00;;;;2073550;28;20271;-61
2020/12/28 04:17:00;;;;;;;0.80;0.70;;;;;20.40;96660.00;;;;2078448;28;20223;-61
2020/12/28 04:18:01;;;;;;;1.00;0.60;;;;;20.40;96656.00;;;;2073468;28;20217;-61
2020/12/28 04:19:01;;;;;;;0.87;0.70;;;;;20.40;96659.00;;;;2078405;28;20215;-61
2020/12/28 04:20:02;;;;;;;0.70;0.63;;;;;20.30;96669.00;;;;2073716;28;20784;-62
2020/12/28 04:21:02;;;;;;;0.70;0.50;;;;;20.30;96661.00;;;;2078209;28;20896;-64
2020/12/28 04:22:02;;;;;;;0.90;0.57;;;;;20.30;96652.00;;;;2064961;28;20591;-64
2020/12/28 04:23:03;;;;;;;0.60;0.60;;;;;20.30;96669.00;;;;2071249;28;20652;-64
2020/12/28 04:24:03;;;;;;;0.70;0.53;;;;;20.30;96666.00;;;;2073732;28;20576;-64
2020/12/28 04:25:03;;;;;;;0.60;0.50;;;;;20.30;96663.00;;;;2079965;28;20588;-64
2020/12/28 04:26:04;;;;;;;1.37;0.70;;;;;20.30;96669.00;;;;2078042;28;20707;-64
2020/12/28 04:27:04;;;;;;;0.60;0.50;;;;;20.40;96659.00;;;;2073592;28;20584;-64
2020/12/28 04:28:05;;;;;;;0.77;0.67;;;;;20.30;96664.00;;;;2077935;28;20232;-64
2020/12/28 04:29:05;;;;;;;1.07;0.70;;;;;20.30;96663.00;;;;2074101;28;20457;-64
2020/12/28 04:30:05;;;;;;;0.87;0.57;;;;;20.30;96669.00;;;;2077767;28;20306;-64
2020/12/28 04:31:09;;;;;;;0.70;0.50;;;;;20.30;96657.00;;;;2074068;28;20232;-64
2020/12/28 04:32:09;;;;;;;0.80;0.65;;;;;20.30;96658.00;;;;2076916;28;20224;-64
2020/12/28 04:33:10;;;;;;;0.70;0.50;;;;;20.30;96663.00;;;;2074801;28;20216;-64
2020/12/28 04:34:10;;;;;;;0.60;0.50;;;;;20.30;96663.00;;;;2077047;28;20255;-64
2020/12/28 04:35:10;;;;;;;1.30;0.60;;;;;20.30;96665.00;;;;2076583;28;20212;-64
2020/12/28 04:36:11;;;;;;;0.90;0.80;;;;;20.30;96663.00;;;;2079760;28;20243;-64
2020/12/28 04:37:11;;;;;;;0.80;0.57;;;;;20.30;96658.00;;;;2079868;28;20226;-64
2020/12/28 04:38:11;;;;;;;0.60;0.50;;;;;20.30;96654.00;;;;2079927;28;20224;-64
2020/12/28 04:39:12;;;;;;;0.63;0.53;;;;;20.30;96661.00;;;;2076656;28;20212;-64
2020/12/28 04:40:12;;;;;;;0.60;0.47;;;;;20.30;96659.00;;;;2074569;28;20212;-64
2020/12/28 04:41:12;;;;;;;1.17;0.60;;;;;20.30;96652.00;;;;2076720;28;20219;-64
2020/12/28 04:42:13;;;;;;;0.70;0.53;;;;;20.30;96656.00;;;;2074947;28;20240;-64
2020/12/28 04:43:13;;;;;;;0.70;0.60;;;;;20.30;96662.00;;;;2076635;28;20237;-64
2020/12/28 04:44:14;;;;;;;0.60;0.57;;;;;20.30;96659.00;;;;2075163;28;20222;-64
2020/12/28 04:45:14;;;;;;;0.70;0.40;;;;;20.20;96657.00;;;;2059663;28;20217;-64
2020/12/28 04:46:14;;;;;;;1.70;0.70;;;;;20.30;96657.00;;;;2058293;28;20218;-64
2020/12/28 04:47:14;;;;;;;0.90;0.50;;;;;20.20;96660.00;;;;2067407;28;20215;-64
2020/12/28 04:48:15;;;;;;;0.70;0.60;;;;;20.30;96652.00;;;;2058462;28;20225;-64
2020/12/28 04:49:15;;;;;;;0.60;0.40;;;;;20.30;96657.00;;;;2067606;28;20242;-64
2020/12/28 04:50:15;;;;;;;0.73;0.43;;;;;20.10;96656.00;;;;2058569;28;20221;-64
2020/12/28 04:51:16;;;;;;;0.80;0.50;;;;;20.30;96661.00;;;;2063100;28;20224;-64
2020/12/28 04:52:16;;;;;;;0.70;0.60;;;;;20.30;96656.00;;;;2063012;28;20329;-65
2020/12/28 04:53:17;;;;;;;0.87;0.60;;;;;20.30;96649.00;;;;2066623;28;20216;-64
2020/12/28 04:54:17;;;;;;;0.60;0.50;;;;;20.30;96655.00;;;;2071064;28;20225;-64
2020/12/28 04:55:17;;;;;;;0.80;0.50;;;;;20.30;96654.00;;;;2070884;28;20733;-64
2020/12/28 04:56:18;;;;;;;0.77;0.60;;;;;20.30;96653.00;;;;2079805;28;20737;-64
2020/12/28 04:57:19;;;;;;;0.88;0.50;;;;;20.30;96653.00;;;;2075725;28;20275;-64
2020/12/28 04:58:19;;;;;;;0.60;0.50;;;;;20.30;96654.00;;;;2075759;28;20706;-64
2020/12/28 04:59:19;;;;;;;0.67;0.57;;;;;20.30;96650.00;;;;2059029;28;20567;-64
2020/12/28 05:00:20;;;;;;;0.90;0.70;;;;;20.30;96645.00;;;;2059112;28;20221;-64